sensor_id;sensor_type;location;lat;lon;timestamp;P1;durP1;ratioP1;P2;durP2;ratioP2
72301;SDS011;60235;52.234;5.186;2022-12-18T00:00:30;69.45;;;23.13;;
72301;SDS011;60235;52.234;5.186;2022-12-18T00:02:56;58.83;;;16.15;;
72301;SDS011;60235;52.234;5.186;2022-12-18T00:05:22;48.47;;;15.07;;
72301;SDS011;60235;52.234;5.186;2022-12-18T00:07:48;51.15;;;12.82;;
72301;SDS011;60235;52.234;5.186;2022-12-18T00:10:14;47.75;;;14.95;;
72301;SDS011;60235;52.234;5.186;2022-12-18T00:12:40;51.42;;;15.65;;
72301;SDS011;60235;52.234;5.186;2022-12-18T00:15:06;61.80;;;16.17;;
72301;SDS011;60235;52.234;5.186;2022-12-18T00:17:32;51.60;;;14.65;;
72301;SDS011;60235;52.234;5.186;2022-12-18T00:19:58;54.33;;;14.50;;
72301;SDS011;60235;52.234;5.186;2022-12-18T00:22:24;55.60;;;15.23;;
72301;SDS011;60235;52.234;5.186;2022-12-18T00:24:50;53.15;;;16.77;;
72301;SDS011;60235;52.234;5.186;2022-12-18T00:27:16;60.15;;;17.85;;
72301;SDS011;60235;52.234;5.186;2022-12-18T00:29:42;52.75;;;16.20;;
72301;SDS011;60235;52.234;5.186;2022-12-18T00:32:08;58.33;;;16.95;;
72301;SDS011;60235;52.234;5.186;2022-12-18T00:34:34;53.47;;;14.27;;
72301;SDS011;60235;52.234;5.186;2022-12-18T00:37:00;42.53;;;13.73;;
72301;SDS011;60235;52.234;5.186;2022-12-18T00:39:26;63.20;;;18.42;;
72301;SDS011;60235;52.234;5.186;2022-12-18T00:41:52;54.13;;;14.45;;
72301;SDS011;60235;52.234;5.186;2022-12-18T00:44:36;49.65;;;14.23;;
72301;SDS011;60235;52.234;5.186;2022-12-18T00:47:02;48.38;;;14.98;;
72301;SDS011;60235;52.234;5.186;2022-12-18T00:49:28;59.60;;;18.02;;
72301;SDS011;60235;52.234;5.186;2022-12-18T00:51:54;46.30;;;14.45;;
72301;SDS011;60235;52.234;5.186;2022-12-18T00:54:20;46.25;;;14.50;;
72301;SDS011;60235;52.234;5.186;2022-12-18T00:56:46;45.60;;;13.57;;
72301;SDS011;60235;52.234;5.186;2022-12-18T00:59:12;42.30;;;14.25;;
72301;SDS011;60235;52.234;5.186;2022-12-18T01:01:38;43.72;;;13.50;;
72301;SDS011;60235;52.234;5.186;2022-12-18T01:04:04;48.72;;;14.57;;
72301;SDS011;60235;52.234;5.186;2022-12-18T01:06:31;42.75;;;12.93;;
72301;SDS011;60235;52.234;5.186;2022-12-18T01:08:57;44.22;;;13.00;;
72301;SDS011;60235;52.234;5.186;2022-12-18T01:11:23;46.92;;;13.77;;
72301;SDS011;60235;52.234;5.186;2022-12-18T01:13:49;51.35;;;15.48;;
72301;SDS011;60235;52.234;5.186;2022-12-18T01:16:15;48.42;;;14.80;;
72301;SDS011;60235;52.234;5.186;2022-12-18T01:18:42;40.60;;;13.57;;
72301;SDS011;60235;52.234;5.186;2022-12-18T01:21:09;41.92;;;11.93;;
72301;SDS011;60235;52.234;5.186;2022-12-18T01:23:35;48.78;;;13.55;;
72301;SDS011;60235;52.234;5.186;2022-12-18T01:26:08;40.80;;;12.93;;
72301;SDS011;60235;52.234;5.186;2022-12-18T01:28:34;42.72;;;13.25;;
72301;SDS011;60235;52.234;5.186;2022-12-18T01:33:38;46.88;;;14.38;;
72301;SDS011;60235;52.234;5.186;2022-12-18T01:36:04;50.15;;;14.07;;
72301;SDS011;60235;52.234;5.186;2022-12-18T01:38:30;46.28;;;13.80;;
72301;SDS011;60235;52.234;5.186;2022-12-18T01:41:00;48.30;;;13.77;;
72301;SDS011;60235;52.234;5.186;2022-12-18T01:46:11;46.33;;;14.45;;
72301;SDS011;60235;52.234;5.186;2022-12-18T01:48:37;44.20;;;14.30;;
72301;SDS011;60235;52.234;5.186;2022-12-18T01:51:04;49.67;;;14.77;;
72301;SDS011;60235;52.234;5.186;2022-12-18T01:53:31;47.35;;;13.27;;
72301;SDS011;60235;52.234;5.186;2022-12-18T01:55:57;49.92;;;13.05;;
72301;SDS011;60235;52.234;5.186;2022-12-18T01:58:32;49.45;;;14.02;;
72301;SDS011;60235;52.234;5.186;2022-12-18T02:00:58;46.58;;;15.02;;
72301;SDS011;60235;52.234;5.186;2022-12-18T02:03:24;48.60;;;13.93;;
72301;SDS011;60235;52.234;5.186;2022-12-18T02:11:11;48.22;;;14.05;;
72301;SDS011;60235;52.234;5.186;2022-12-18T02:13:44;39.67;;;13.35;;
72301;SDS011;60235;52.234;5.186;2022-12-18T02:19:03;51.75;;;15.20;;
72301;SDS011;60235;52.234;5.186;2022-12-18T02:21:34;42.53;;;13.43;;
72301;SDS011;60235;52.234;5.186;2022-12-18T02:26:36;51.45;;;14.05;;
72301;SDS011;60235;52.234;5.186;2022-12-18T02:29:05;50.70;;;15.27;;
72301;SDS011;60235;52.234;5.186;2022-12-18T02:31:35;44.35;;;13.25;;
72301;SDS011;60235;52.234;5.186;2022-12-18T02:34:03;49.83;;;14.07;;
72301;SDS011;60235;52.234;5.186;2022-12-18T02:36:30;47.60;;;14.48;;
72301;SDS011;60235;52.234;5.186;2022-12-18T02:38:58;53.63;;;14.73;;
72301;SDS011;60235;52.234;5.186;2022-12-18T02:41:25;47.60;;;13.93;;
72301;SDS011;60235;52.234;5.186;2022-12-18T02:43:59;44.85;;;13.77;;
72301;SDS011;60235;52.234;5.186;2022-12-18T02:46:33;22.55;;;8.10;;
72301;SDS011;60235;52.234;5.186;2022-12-18T02:49:22;43.35;;;13.27;;
72301;SDS011;60235;52.234;5.186;2022-12-18T02:51:53;45.83;;;14.95;;
72301;SDS011;60235;52.234;5.186;2022-12-18T02:56:56;44.97;;;14.20;;
72301;SDS011;60235;52.234;5.186;2022-12-18T02:59:30;48.75;;;14.25;;
72301;SDS011;60235;52.234;5.186;2022-12-18T03:04:47;49.03;;;15.05;;
72301;SDS011;60235;52.234;5.186;2022-12-18T03:07:21;45.15;;;13.85;;
72301;SDS011;60235;52.234;5.186;2022-12-18T03:09:50;45.08;;;14.02;;
72301;SDS011;60235;52.234;5.186;2022-12-18T03:12:18;42.33;;;13.00;;
72301;SDS011;60235;52.234;5.186;2022-12-18T03:14:48;44.47;;;14.38;;
72301;SDS011;60235;52.234;5.186;2022-12-18T03:17:16;45.47;;;14.65;;
72301;SDS011;60235;52.234;5.186;2022-12-18T03:19:43;39.72;;;13.77;;
72301;SDS011;60235;52.234;5.186;2022-12-18T03:22:11;52.40;;;13.95;;
72301;SDS011;60235;52.234;5.186;2022-12-18T03:24:38;46.67;;;14.45;;
72301;SDS011;60235;52.234;5.186;2022-12-18T03:27:06;39.17;;;12.43;;
72301;SDS011;60235;52.234;5.186;2022-12-18T03:29:38;47.50;;;14.52;;
72301;SDS011;60235;52.234;5.186;2022-12-18T03:32:05;47.83;;;13.93;;
72301;SDS011;60235;52.234;5.186;2022-12-18T03:34:34;48.50;;;13.93;;
72301;SDS011;60235;52.234;5.186;2022-12-18T03:37:01;53.13;;;14.95;;
72301;SDS011;60235;52.234;5.186;2022-12-18T03:39:27;51.47;;;12.95;;
72301;SDS011;60235;52.234;5.186;2022-12-18T03:42:07;44.60;;;13.93;;
72301;SDS011;60235;52.234;5.186;2022-12-18T03:44:39;50.38;;;13.73;;
72301;SDS011;60235;52.234;5.186;2022-12-18T03:49:46;46.67;;;13.63;;
72301;SDS011;60235;52.234;5.186;2022-12-18T03:52:49;49.53;;;14.30;;
72301;SDS011;60235;52.234;5.186;2022-12-18T03:55:07;42.88;;;12.85;;
72301;SDS011;60235;52.234;5.186;2022-12-18T03:57:34;40.67;;;12.75;;
72301;SDS011;60235;52.234;5.186;2022-12-18T04:00:06;55.88;;;15.55;;
72301;SDS011;60235;52.234;5.186;2022-12-18T04:02:32;42.60;;;13.20;;
72301;SDS011;60235;52.234;5.186;2022-12-18T04:05:00;44.05;;;13.82;;
72301;SDS011;60235;52.234;5.186;2022-12-18T04:07:28;36.97;;;13.02;;
72301;SDS011;60235;52.234;5.186;2022-12-18T04:09:54;46.78;;;15.23;;
72301;SDS011;60235;52.234;5.186;2022-12-18T04:12:24;41.00;;;13.00;;
72301;SDS011;60235;52.234;5.186;2022-12-18T04:14:51;38.38;;;13.55;;
72301;SDS011;60235;52.234;5.186;2022-12-18T04:17:17;42.08;;;14.10;;
72301;SDS011;60235;52.234;5.186;2022-12-18T04:19:43;48.25;;;14.15;;
72301;SDS011;60235;52.234;5.186;2022-12-18T04:22:09;42.38;;;13.40;;
72301;SDS011;60235;52.234;5.186;2022-12-18T04:24:36;46.63;;;14.32;;
72301;SDS011;60235;52.234;5.186;2022-12-18T04:27:02;47.90;;;15.70;;
72301;SDS011;60235;52.234;5.186;2022-12-18T04:29:28;37.50;;;12.75;;
72301;SDS011;60235;52.234;5.186;2022-12-18T04:31:54;40.15;;;14.18;;
72301;SDS011;60235;52.234;5.186;2022-12-18T04:34:21;39.00;;;12.68;;
72301;SDS011;60235;52.234;5.186;2022-12-18T04:36:47;34.00;;;11.45;;
72301;SDS011;60235;52.234;5.186;2022-12-18T04:39:13;40.67;;;12.52;;
72301;SDS011;60235;52.234;5.186;2022-12-18T04:41:39;40.08;;;13.73;;
72301;SDS011;60235;52.234;5.186;2022-12-18T04:44:06;34.10;;;10.38;;
72301;SDS011;60235;52.234;5.186;2022-12-18T04:46:32;30.63;;;11.05;;
72301;SDS011;60235;52.234;5.186;2022-12-18T04:48:58;35.65;;;10.60;;
72301;SDS011;60235;52.234;5.186;2022-12-18T04:51:24;43.50;;;12.38;;
72301;SDS011;60235;52.234;5.186;2022-12-18T04:53:50;35.75;;;10.60;;
72301;SDS011;60235;52.234;5.186;2022-12-18T04:56:16;34.00;;;11.52;;
72301;SDS011;60235;52.234;5.186;2022-12-18T04:58:43;34.45;;;11.10;;
72301;SDS011;60235;52.234;5.186;2022-12-18T05:01:09;34.15;;;11.40;;
72301;SDS011;60235;52.234;5.186;2022-12-18T05:03:36;31.38;;;11.23;;
72301;SDS011;60235;52.234;5.186;2022-12-18T05:06:03;31.45;;;10.88;;
72301;SDS011;60235;52.234;5.186;2022-12-18T05:08:29;31.27;;;10.55;;
72301;SDS011;60235;52.234;5.186;2022-12-18T05:11:03;37.10;;;11.90;;
72301;SDS011;60235;52.234;5.186;2022-12-18T05:13:30;30.48;;;9.80;;
72301;SDS011;60235;52.234;5.186;2022-12-18T05:15:56;33.17;;;11.95;;
72301;SDS011;60235;52.234;5.186;2022-12-18T05:18:22;30.10;;;10.35;;
72301;SDS011;60235;52.234;5.186;2022-12-18T05:20:49;26.75;;;9.02;;
72301;SDS011;60235;52.234;5.186;2022-12-18T05:23:15;29.02;;;9.40;;
72301;SDS011;60235;52.234;5.186;2022-12-18T05:25:41;31.45;;;11.70;;
72301;SDS011;60235;52.234;5.186;2022-12-18T05:28:07;32.55;;;10.30;;
72301;SDS011;60235;52.234;5.186;2022-12-18T05:30:33;40.17;;;10.57;;
72301;SDS011;60235;52.234;5.186;2022-12-18T05:32:59;29.15;;;10.00;;
72301;SDS011;60235;52.234;5.186;2022-12-18T05:35:25;34.63;;;11.73;;
72301;SDS011;60235;52.234;5.186;2022-12-18T05:37:51;34.10;;;11.57;;
72301;SDS011;60235;52.234;5.186;2022-12-18T05:40:17;32.90;;;10.45;;
72301;SDS011;60235;52.234;5.186;2022-12-18T05:42:43;28.60;;;9.98;;
72301;SDS011;60235;52.234;5.186;2022-12-18T05:45:09;36.92;;;12.60;;
72301;SDS011;60235;52.234;5.186;2022-12-18T05:47:35;30.73;;;10.02;;
72301;SDS011;60235;52.234;5.186;2022-12-18T05:50:01;30.52;;;10.80;;
72301;SDS011;60235;52.234;5.186;2022-12-18T05:52:28;30.25;;;10.30;;
72301;SDS011;60235;52.234;5.186;2022-12-18T05:54:54;33.13;;;11.20;;
72301;SDS011;60235;52.234;5.186;2022-12-18T05:57:20;28.80;;;9.65;;
72301;SDS011;60235;52.234;5.186;2022-12-18T05:59:46;34.00;;;10.30;;
72301;SDS011;60235;52.234;5.186;2022-12-18T06:02:12;31.65;;;11.50;;
72301;SDS011;60235;52.234;5.186;2022-12-18T06:04:38;33.35;;;11.40;;
72301;SDS011;60235;52.234;5.186;2022-12-18T06:07:04;32.20;;;10.23;;
72301;SDS011;60235;52.234;5.186;2022-12-18T06:09:30;27.85;;;10.13;;
72301;SDS011;60235;52.234;5.186;2022-12-18T06:11:56;29.17;;;9.52;;
72301;SDS011;60235;52.234;5.186;2022-12-18T06:14:22;33.60;;;10.38;;
72301;SDS011;60235;52.234;5.186;2022-12-18T06:16:50;29.08;;;9.45;;
72301;SDS011;60235;52.234;5.186;2022-12-18T06:19:16;28.90;;;10.73;;
72301;SDS011;60235;52.234;5.186;2022-12-18T06:21:42;25.90;;;8.48;;
72301;SDS011;60235;52.234;5.186;2022-12-18T06:24:08;30.20;;;9.20;;
72301;SDS011;60235;52.234;5.186;2022-12-18T06:26:36;24.60;;;9.40;;
72301;SDS011;60235;52.234;5.186;2022-12-18T06:29:02;24.25;;;9.05;;
72301;SDS011;60235;52.234;5.186;2022-12-18T06:31:28;25.83;;;8.10;;
72301;SDS011;60235;52.234;5.186;2022-12-18T06:33:54;21.90;;;7.93;;
72301;SDS011;60235;52.234;5.186;2022-12-18T06:36:20;24.25;;;8.75;;
72301;SDS011;60235;52.234;5.186;2022-12-18T06:38:46;25.50;;;8.77;;
72301;SDS011;60235;52.234;5.186;2022-12-18T06:41:13;25.77;;;9.18;;
72301;SDS011;60235;52.234;5.186;2022-12-18T06:43:40;20.75;;;8.80;;
72301;SDS011;60235;52.234;5.186;2022-12-18T06:46:06;28.00;;;10.18;;
72301;SDS011;60235;52.234;5.186;2022-12-18T06:48:32;28.65;;;10.63;;
72301;SDS011;60235;52.234;5.186;2022-12-18T06:50:58;25.92;;;9.07;;
72301;SDS011;60235;52.234;5.186;2022-12-18T06:53:24;24.15;;;9.00;;
72301;SDS011;60235;52.234;5.186;2022-12-18T06:55:51;29.63;;;8.95;;
72301;SDS011;60235;52.234;5.186;2022-12-18T06:58:17;22.85;;;8.50;;
72301;SDS011;60235;52.234;5.186;2022-12-18T07:00:43;30.73;;;9.75;;
72301;SDS011;60235;52.234;5.186;2022-12-18T07:03:10;24.58;;;8.00;;
72301;SDS011;60235;52.234;5.186;2022-12-18T07:05:39;27.75;;;8.63;;
72301;SDS011;60235;52.234;5.186;2022-12-18T07:08:05;20.27;;;8.18;;
72301;SDS011;60235;52.234;5.186;2022-12-18T07:10:31;28.02;;;9.10;;
72301;SDS011;60235;52.234;5.186;2022-12-18T07:12:57;26.20;;;9.13;;
72301;SDS011;60235;52.234;5.186;2022-12-18T07:15:23;21.20;;;7.95;;
72301;SDS011;60235;52.234;5.186;2022-12-18T07:17:49;24.63;;;8.25;;
72301;SDS011;60235;52.234;5.186;2022-12-18T07:20:15;22.50;;;7.40;;
72301;SDS011;60235;52.234;5.186;2022-12-18T07:22:41;24.45;;;8.57;;
72301;SDS011;60235;52.234;5.186;2022-12-18T07:25:07;27.92;;;8.20;;
72301;SDS011;60235;52.234;5.186;2022-12-18T07:27:33;21.75;;;7.68;;
72301;SDS011;60235;52.234;5.186;2022-12-18T07:29:59;24.75;;;8.00;;
72301;SDS011;60235;52.234;5.186;2022-12-18T07:32:25;23.15;;;8.10;;
72301;SDS011;60235;52.234;5.186;2022-12-18T07:34:51;24.00;;;7.43;;
72301;SDS011;60235;52.234;5.186;2022-12-18T07:37:17;22.77;;;8.27;;
72301;SDS011;60235;52.234;5.186;2022-12-18T07:39:43;22.98;;;8.07;;
72301;SDS011;60235;52.234;5.186;2022-12-18T07:42:09;19.88;;;8.23;;
72301;SDS011;60235;52.234;5.186;2022-12-18T07:44:57;21.88;;;7.85;;
72301;SDS011;60235;52.234;5.186;2022-12-18T07:47:23;21.55;;;7.47;;
72301;SDS011;60235;52.234;5.186;2022-12-18T07:49:49;18.17;;;7.38;;
72301;SDS011;60235;52.234;5.186;2022-12-18T07:52:15;20.00;;;7.30;;
72301;SDS011;60235;52.234;5.186;2022-12-18T07:54:41;25.38;;;8.20;;
72301;SDS011;60235;52.234;5.186;2022-12-18T07:57:07;21.65;;;7.10;;
72301;SDS011;60235;52.234;5.186;2022-12-18T07:59:34;17.27;;;7.15;;
72301;SDS011;60235;52.234;5.186;2022-12-18T08:02:00;20.10;;;7.22;;
72301;SDS011;60235;52.234;5.186;2022-12-18T08:04:26;14.65;;;6.25;;
72301;SDS011;60235;52.234;5.186;2022-12-18T08:06:52;20.48;;;7.68;;
72301;SDS011;60235;52.234;5.186;2022-12-18T08:09:18;20.73;;;8.68;;
72301;SDS011;60235;52.234;5.186;2022-12-18T08:11:44;23.35;;;7.75;;
72301;SDS011;60235;52.234;5.186;2022-12-18T08:14:10;24.75;;;7.25;;
72301;SDS011;60235;52.234;5.186;2022-12-18T08:16:36;19.73;;;8.10;;
72301;SDS011;60235;52.234;5.186;2022-12-18T08:19:03;20.92;;;8.70;;
72301;SDS011;60235;52.234;5.186;2022-12-18T08:21:29;21.27;;;7.20;;
72301;SDS011;60235;52.234;5.186;2022-12-18T08:23:57;24.23;;;7.60;;
72301;SDS011;60235;52.234;5.186;2022-12-18T08:26:24;20.38;;;6.93;;
72301;SDS011;60235;52.234;5.186;2022-12-18T08:28:50;21.60;;;8.40;;
72301;SDS011;60235;52.234;5.186;2022-12-18T08:31:17;22.45;;;9.00;;
72301;SDS011;60235;52.234;5.186;2022-12-18T08:33:44;20.27;;;7.68;;
72301;SDS011;60235;52.234;5.186;2022-12-18T08:36:10;20.65;;;7.57;;
72301;SDS011;60235;52.234;5.186;2022-12-18T08:38:36;21.13;;;7.85;;
72301;SDS011;60235;52.234;5.186;2022-12-18T08:41:03;26.20;;;8.65;;
72301;SDS011;60235;52.234;5.186;2022-12-18T08:43:29;20.88;;;6.93;;
72301;SDS011;60235;52.234;5.186;2022-12-18T08:46:14;22.58;;;7.55;;
72301;SDS011;60235;52.234;5.186;2022-12-18T08:48:40;20.25;;;6.97;;
72301;SDS011;60235;52.234;5.186;2022-12-18T08:51:06;24.88;;;9.50;;
72301;SDS011;60235;52.234;5.186;2022-12-18T08:53:34;22.58;;;6.70;;
72301;SDS011;60235;52.234;5.186;2022-12-18T08:56:00;22.77;;;8.70;;
72301;SDS011;60235;52.234;5.186;2022-12-18T08:58:26;20.63;;;7.63;;
72301;SDS011;60235;52.234;5.186;2022-12-18T09:00:52;21.65;;;8.55;;
72301;SDS011;60235;52.234;5.186;2022-12-18T09:03:18;24.00;;;9.13;;
72301;SDS011;60235;52.234;5.186;2022-12-18T09:05:47;27.98;;;10.32;;
72301;SDS011;60235;52.234;5.186;2022-12-18T09:08:13;20.95;;;8.30;;
72301;SDS011;60235;52.234;5.186;2022-12-18T09:10:45;19.20;;;7.65;;
72301;SDS011;60235;52.234;5.186;2022-12-18T09:13:11;20.55;;;7.60;;
72301;SDS011;60235;52.234;5.186;2022-12-18T09:15:41;21.10;;;8.23;;
72301;SDS011;60235;52.234;5.186;2022-12-18T09:18:07;21.27;;;8.07;;
72301;SDS011;60235;52.234;5.186;2022-12-18T09:20:34;15.98;;;5.25;;
72301;SDS011;60235;52.234;5.186;2022-12-18T09:23:00;26.05;;;10.35;;
72301;SDS011;60235;52.234;5.186;2022-12-18T09:25:26;17.10;;;7.35;;
72301;SDS011;60235;52.234;5.186;2022-12-18T09:27:56;24.33;;;9.65;;
72301;SDS011;60235;52.234;5.186;2022-12-18T09:30:22;20.95;;;8.38;;
72301;SDS011;60235;52.234;5.186;2022-12-18T09:32:48;24.85;;;9.43;;
72301;SDS011;60235;52.234;5.186;2022-12-18T09:35:14;21.90;;;8.05;;
72301;SDS011;60235;52.234;5.186;2022-12-18T09:37:40;21.60;;;7.97;;
72301;SDS011;60235;52.234;5.186;2022-12-18T09:40:12;19.83;;;7.60;;
72301;SDS011;60235;52.234;5.186;2022-12-18T09:42:38;17.65;;;7.88;;
72301;SDS011;60235;52.234;5.186;2022-12-18T09:45:04;16.30;;;6.65;;
72301;SDS011;60235;52.234;5.186;2022-12-18T09:47:33;21.67;;;7.55;;
72301;SDS011;60235;52.234;5.186;2022-12-18T09:50:01;16.42;;;6.40;;
72301;SDS011;60235;52.234;5.186;2022-12-18T09:55:17;18.08;;;7.15;;
72301;SDS011;60235;52.234;5.186;2022-12-18T09:57:41;16.75;;;7.30;;
72301;SDS011;60235;52.234;5.186;2022-12-18T10:00:14;21.80;;;7.00;;
72301;SDS011;60235;52.234;5.186;2022-12-18T10:02:41;17.95;;;6.65;;
72301;SDS011;60235;52.234;5.186;2022-12-18T10:05:10;17.95;;;7.75;;
72301;SDS011;60235;52.234;5.186;2022-12-18T10:12:35;16.27;;;6.35;;
72301;SDS011;60235;52.234;5.186;2022-12-18T10:15:13;22.58;;;8.00;;
72301;SDS011;60235;52.234;5.186;2022-12-18T10:17:46;17.02;;;6.43;;
72301;SDS011;60235;52.234;5.186;2022-12-18T10:20:17;21.00;;;6.72;;
72301;SDS011;60235;52.234;5.186;2022-12-18T10:22:52;13.43;;;5.45;;
72301;SDS011;60235;52.234;5.186;2022-12-18T10:26:20;16.67;;;7.15;;
72301;SDS011;60235;52.234;5.186;2022-12-18T10:28:15;20.00;;;7.72;;
72301;SDS011;60235;52.234;5.186;2022-12-18T10:30:43;17.38;;;7.85;;
72301;SDS011;60235;52.234;5.186;2022-12-18T10:33:16;17.80;;;7.22;;
72301;SDS011;60235;52.234;5.186;2022-12-18T10:35:43;22.52;;;7.30;;
72301;SDS011;60235;52.234;5.186;2022-12-18T10:41:23;18.88;;;6.43;;
72301;SDS011;60235;52.234;5.186;2022-12-18T10:43:39;19.50;;;7.25;;
72301;SDS011;60235;52.234;5.186;2022-12-18T10:51:29;15.98;;;6.65;;
72301;SDS011;60235;52.234;5.186;2022-12-18T10:54:02;16.08;;;5.65;;
72301;SDS011;60235;52.234;5.186;2022-12-18T10:56:29;15.65;;;6.22;;
72301;SDS011;60235;52.234;5.186;2022-12-18T10:58:57;16.33;;;7.22;;
72301;SDS011;60235;52.234;5.186;2022-12-18T11:01:23;19.75;;;6.90;;
72301;SDS011;60235;52.234;5.186;2022-12-18T11:06:19;16.50;;;6.40;;
72301;SDS011;60235;52.234;5.186;2022-12-18T11:09:23;21.98;;;8.65;;
72301;SDS011;60235;52.234;5.186;2022-12-18T11:11:41;16.45;;;6.82;;
72301;SDS011;60235;52.234;5.186;2022-12-18T11:14:18;18.92;;;7.13;;
72301;SDS011;60235;52.234;5.186;2022-12-18T11:16:47;19.83;;;7.68;;
72301;SDS011;60235;52.234;5.186;2022-12-18T11:21:46;20.13;;;7.38;;
72301;SDS011;60235;52.234;5.186;2022-12-18T11:24:24;13.82;;;5.60;;
72301;SDS011;60235;52.234;5.186;2022-12-18T11:26:53;14.93;;;6.13;;
72301;SDS011;60235;52.234;5.186;2022-12-18T11:29:23;20.30;;;7.05;;
72301;SDS011;60235;52.234;5.186;2022-12-18T11:31:50;17.20;;;5.72;;
72301;SDS011;60235;52.234;5.186;2022-12-18T11:36:45;18.10;;;7.63;;
72301;SDS011;60235;52.234;5.186;2022-12-18T11:39:15;18.20;;;7.18;;
72301;SDS011;60235;52.234;5.186;2022-12-18T11:44:27;16.45;;;6.53;;
72301;SDS011;60235;52.234;5.186;2022-12-18T11:47:01;17.48;;;6.50;;
72301;SDS011;60235;52.234;5.186;2022-12-18T11:49:33;22.10;;;6.75;;
72301;SDS011;60235;52.234;5.186;2022-12-18T11:55:01;24.60;;;8.65;;
72301;SDS011;60235;52.234;5.186;2022-12-18T12:00:18;25.95;;;9.13;;
72301;SDS011;60235;52.234;5.186;2022-12-18T12:05:33;19.45;;;7.13;;
72301;SDS011;60235;52.234;5.186;2022-12-18T12:08:16;14.75;;;5.97;;
72301;SDS011;60235;52.234;5.186;2022-12-18T12:10:49;23.27;;;8.43;;
72301;SDS011;60235;52.234;5.186;2022-12-18T12:13:22;20.80;;;7.65;;
72301;SDS011;60235;52.234;5.186;2022-12-18T12:29:56;21.63;;;8.25;;
72301;SDS011;60235;52.234;5.186;2022-12-18T12:39:49;19.00;;;6.90;;
72301;SDS011;60235;52.234;5.186;2022-12-18T12:42:18;14.43;;;6.35;;
72301;SDS011;60235;52.234;5.186;2022-12-18T12:45:05;16.85;;;7.30;;
72301;SDS011;60235;52.234;5.186;2022-12-18T12:47:33;13.65;;;5.65;;
72301;SDS011;60235;52.234;5.186;2022-12-18T12:54:53;20.55;;;6.95;;
72301;SDS011;60235;52.234;5.186;2022-12-18T13:05:00;23.42;;;9.50;;
72301;SDS011;60235;52.234;5.186;2022-12-18T13:07:41;16.77;;;6.65;;
72301;SDS011;60235;52.234;5.186;2022-12-18T13:12:58;20.73;;;7.93;;
72301;SDS011;60235;52.234;5.186;2022-12-18T13:20:50;18.58;;;7.13;;
72301;SDS011;60235;52.234;5.186;2022-12-18T13:25:45;17.17;;;6.57;;
72301;SDS011;60235;52.234;5.186;2022-12-18T13:28:12;18.25;;;7.15;;
72301;SDS011;60235;52.234;5.186;2022-12-18T13:35:42;17.75;;;6.53;;
72301;SDS011;60235;52.234;5.186;2022-12-18T13:45:48;19.58;;;7.35;;
72301;SDS011;60235;52.234;5.186;2022-12-18T13:48:19;19.08;;;7.03;;
72301;SDS011;60235;52.234;5.186;2022-12-18T13:50:53;18.50;;;7.22;;
72301;SDS011;60235;52.234;5.186;2022-12-18T13:53:26;19.75;;;8.20;;
72301;SDS011;60235;52.234;5.186;2022-12-18T13:55:52;15.32;;;6.80;;
72301;SDS011;60235;52.234;5.186;2022-12-18T13:58:19;19.95;;;7.38;;
72301;SDS011;60235;52.234;5.186;2022-12-18T14:00:45;18.77;;;6.63;;
72301;SDS011;60235;52.234;5.186;2022-12-18T14:03:18;20.35;;;7.00;;
72301;SDS011;60235;52.234;5.186;2022-12-18T14:05:44;20.52;;;8.50;;
72301;SDS011;60235;52.234;5.186;2022-12-18T14:08:12;18.30;;;7.25;;
72301;SDS011;60235;52.234;5.186;2022-12-18T14:10:43;20.10;;;6.97;;
72301;SDS011;60235;52.234;5.186;2022-12-18T14:13:13;19.38;;;7.38;;
72301;SDS011;60235;52.234;5.186;2022-12-18T14:15:41;19.58;;;7.95;;
72301;SDS011;60235;52.234;5.186;2022-12-18T14:20:43;19.75;;;7.53;;
72301;SDS011;60235;52.234;5.186;2022-12-18T14:25:54;19.13;;;6.60;;
72301;SDS011;60235;52.234;5.186;2022-12-18T14:28:20;18.35;;;6.90;;
72301;SDS011;60235;52.234;5.186;2022-12-18T14:30:47;17.25;;;7.20;;
72301;SDS011;60235;52.234;5.186;2022-12-18T14:33:17;20.85;;;7.80;;
72301;SDS011;60235;52.234;5.186;2022-12-18T14:38:24;24.20;;;10.75;;
72301;SDS011;60235;52.234;5.186;2022-12-18T14:40:53;23.63;;;9.20;;
72301;SDS011;60235;52.234;5.186;2022-12-18T14:43:20;17.67;;;6.80;;
72301;SDS011;60235;52.234;5.186;2022-12-18T14:45:46;18.63;;;7.47;;
72301;SDS011;60235;52.234;5.186;2022-12-18T14:48:25;21.35;;;6.75;;
72301;SDS011;60235;52.234;5.186;2022-12-18T14:51:00;19.92;;;7.88;;
72301;SDS011;60235;52.234;5.186;2022-12-18T14:53:37;19.85;;;7.07;;
72301;SDS011;60235;52.234;5.186;2022-12-18T14:56:14;19.33;;;7.00;;
72301;SDS011;60235;52.234;5.186;2022-12-18T14:58:48;21.85;;;8.27;;
72301;SDS011;60235;52.234;5.186;2022-12-18T15:01:18;20.40;;;7.38;;
72301;SDS011;60235;52.234;5.186;2022-12-18T15:03:44;24.33;;;7.78;;
72301;SDS011;60235;52.234;5.186;2022-12-18T15:08:55;17.73;;;5.93;;
72301;SDS011;60235;52.234;5.186;2022-12-18T15:11:35;19.90;;;7.65;;
72301;SDS011;60235;52.234;5.186;2022-12-18T15:16:50;21.00;;;7.07;;
72301;SDS011;60235;52.234;5.186;2022-12-18T15:19:17;22.45;;;8.48;;
72301;SDS011;60235;52.234;5.186;2022-12-18T15:21:44;21.38;;;7.93;;
72301;SDS011;60235;52.234;5.186;2022-12-18T15:24:16;24.27;;;8.60;;
72301;SDS011;60235;52.234;5.186;2022-12-18T15:26:43;19.75;;;6.65;;
72301;SDS011;60235;52.234;5.186;2022-12-18T15:29:19;20.35;;;7.53;;
72301;SDS011;60235;52.234;5.186;2022-12-18T15:31:45;22.02;;;8.50;;
72301;SDS011;60235;52.234;5.186;2022-12-18T15:34:23;14.25;;;6.10;;
72301;SDS011;60235;52.234;5.186;2022-12-18T15:36:50;17.30;;;5.70;;
72301;SDS011;60235;52.234;5.186;2022-12-18T15:39:16;18.38;;;6.57;;
72301;SDS011;60235;52.234;5.186;2022-12-18T15:41:42;21.13;;;7.78;;
72301;SDS011;60235;52.234;5.186;2022-12-18T15:44:28;19.50;;;7.03;;
72301;SDS011;60235;52.234;5.186;2022-12-18T15:46:54;16.17;;;5.47;;
72301;SDS011;60235;52.234;5.186;2022-12-18T15:49:20;13.38;;;5.18;;
72301;SDS011;60235;52.234;5.186;2022-12-18T15:51:47;19.08;;;6.03;;
72301;SDS011;60235;52.234;5.186;2022-12-18T15:54:13;16.70;;;7.63;;
72301;SDS011;60235;52.234;5.186;2022-12-18T15:57:03;19.00;;;6.22;;
72301;SDS011;60235;52.234;5.186;2022-12-18T15:59:47;18.67;;;7.70;;
72301;SDS011;60235;52.234;5.186;2022-12-18T16:02:15;22.77;;;8.35;;
72301;SDS011;60235;52.234;5.186;2022-12-18T16:04:41;16.27;;;6.18;;
72301;SDS011;60235;52.234;5.186;2022-12-18T16:07:08;19.48;;;7.40;;
72301;SDS011;60235;52.234;5.186;2022-12-18T16:09:34;18.13;;;6.30;;
72301;SDS011;60235;52.234;5.186;2022-12-18T16:12:01;21.40;;;6.78;;
72301;SDS011;60235;52.234;5.186;2022-12-18T16:14:30;20.75;;;7.68;;
72301;SDS011;60235;52.234;5.186;2022-12-18T16:16:57;20.40;;;7.50;;
72301;SDS011;60235;52.234;5.186;2022-12-18T16:19:23;19.95;;;7.80;;
72301;SDS011;60235;52.234;5.186;2022-12-18T16:21:50;25.38;;;9.30;;
72301;SDS011;60235;52.234;5.186;2022-12-18T16:24:20;21.33;;;7.38;;
72301;SDS011;60235;52.234;5.186;2022-12-18T16:26:49;20.17;;;8.40;;
72301;SDS011;60235;52.234;5.186;2022-12-18T16:31:45;21.13;;;7.20;;
72301;SDS011;60235;52.234;5.186;2022-12-18T16:34:12;20.27;;;7.57;;
72301;SDS011;60235;52.234;5.186;2022-12-18T16:36:38;15.90;;;5.75;;
72301;SDS011;60235;52.234;5.186;2022-12-18T16:39:04;20.08;;;8.60;;
72301;SDS011;60235;52.234;5.186;2022-12-18T16:41:30;20.10;;;7.35;;
72301;SDS011;60235;52.234;5.186;2022-12-18T16:43:56;19.35;;;7.85;;
72301;SDS011;60235;52.234;5.186;2022-12-18T16:46:22;20.70;;;7.60;;